AAN107 LEBA-LEAX
Flight info
| Callsign | AAN107 |
|---|---|
| Flight time | 0h 38m |
| Altitude | 7500 |
| Route | VFR |
| Aircraft | AA5/L-SDFG/C |
Departure
| Time | 2026-05-07 13:53 |
|---|---|
| Airport | Córdoba Airport (LEBA) |
Arrival
| Time | 2026-05-07 14:31 |
|---|---|
| Airport | La Axarquía-Leoni Benabu Airfield (LEAX) |
| Time | Latitude | Longitude | Altitude | Speed | Heading |
|---|---|---|---|---|---|
| 2026-05-07 13:41 | 37.84377 | -4.84457 | 300 ft | 0 kts | 30° |
| 2026-05-07 13:48 | 37.84387 | -4.84466 | 303 ft | 4 kts | 329° |
| 2026-05-07 13:48 | 37.84422 | -4.84456 | 300 ft | 7 kts | 27° |
| 2026-05-07 13:48 | 37.84469 | -4.84474 | 301 ft | 10 kts | 299° |
| 2026-05-07 13:49 | 37.84495 | -4.84536 | 300 ft | 0 kts | 294° |
| 2026-05-07 13:50 | 37.84511 | -4.84574 | 300 ft | 10 kts | 302° |
| 2026-05-07 13:50 | 37.84567 | -4.84632 | 297 ft | 13 kts | 19° |
| 2026-05-07 13:50 | 37.84669 | -4.84562 | 296 ft | 20 kts | 28° |
| 2026-05-07 13:51 | 37.84810 | -4.84462 | 294 ft | 27 kts | 33° |
| 2026-05-07 13:51 | 37.84969 | -4.84352 | 292 ft | 23 kts | 24° |
| 2026-05-07 13:51 | 37.85101 | -4.84232 | 292 ft | 25 kts | 46° |
| 2026-05-07 13:51 | 37.85098 | -4.84262 | 292 ft | 7 kts | 200° |
| 2026-05-07 13:52 | 37.84962 | -4.84358 | 292 ft | 45 kts | 208° |
| 2026-05-07 13:52 | 37.84592 | -4.84615 | 371 ft | 68 kts | 214° |
| 2026-05-07 13:52 | 37.84141 | -4.84949 | 508 ft | 80 kts | 212° |
| 2026-05-07 13:52 | 37.83683 | -4.85348 | 690 ft | 81 kts | 235° |
| 2026-05-07 13:53 | 37.83762 | -4.86080 | 811 ft | 101 kts | 306° |
| 2026-05-07 13:53 | 37.84342 | -4.86513 | 1053 ft | 109 kts | 5° |
| 2026-05-07 13:53 | 37.85012 | -4.85978 | 1191 ft | 118 kts | 52° |
| 2026-05-07 13:53 | 37.85011 | -4.84993 | 1305 ft | 123 kts | 128° |
| 2026-05-07 13:54 | 37.84245 | -4.84510 | 1320 ft | 129 kts | 167° |
| 2026-05-07 13:54 | 37.83422 | -4.84144 | 1446 ft | 121 kts | 162° |
| 2026-05-07 13:54 | 37.82671 | -4.83728 | 1579 ft | 115 kts | 159° |
| 2026-05-07 13:54 | 37.81937 | -4.83294 | 1713 ft | 119 kts | 157° |
| 2026-05-07 13:55 | 37.81210 | -4.82789 | 1832 ft | 118 kts | 153° |
| 2026-05-07 13:55 | 37.80533 | -4.82264 | 1958 ft | 114 kts | 152° |
| 2026-05-07 13:55 | 37.79855 | -4.81751 | 2079 ft | 113 kts | 153° |
| 2026-05-07 13:55 | 37.79155 | -4.81314 | 2205 ft | 112 kts | 168° |
| 2026-05-07 13:56 | 37.78411 | -4.81222 | 2335 ft | 106 kts | 184° |
| 2026-05-07 13:56 | 37.77675 | -4.81386 | 2463 ft | 113 kts | 197° |
| 2026-05-07 13:56 | 37.76908 | -4.81646 | 2580 ft | 112 kts | 194° |
| 2026-05-07 13:56 | 37.76133 | -4.81916 | 2612 ft | 119 kts | 197° |
| 2026-05-07 13:57 | 37.75324 | -4.81801 | 2624 ft | 127 kts | 147° |
| 2026-05-07 13:57 | 37.74641 | -4.81042 | 2622 ft | 132 kts | 142° |
| 2026-05-07 13:57 | 37.73946 | -4.80256 | 2621 ft | 134 kts | 141° |
| 2026-05-07 13:57 | 37.73254 | -4.79481 | 2622 ft | 131 kts | 143° |
| 2026-05-07 13:58 | 37.72589 | -4.78750 | 2627 ft | 125 kts | 142° |
| 2026-05-07 13:58 | 37.71941 | -4.78041 | 2616 ft | 122 kts | 141° |
| 2026-05-07 13:58 | 37.71303 | -4.77352 | 2611 ft | 118 kts | 141° |
| 2026-05-07 13:58 | 37.70700 | -4.76671 | 2626 ft | 118 kts | 140° |
| 2026-05-07 13:59 | 37.70095 | -4.75959 | 2614 ft | 117 kts | 140° |
| 2026-05-07 13:59 | 37.69494 | -4.75252 | 2629 ft | 120 kts | 139° |
| 2026-05-07 13:59 | 37.68873 | -4.74526 | 2630 ft | 123 kts | 139° |
| 2026-05-07 13:59 | 37.68247 | -4.73785 | 2632 ft | 123 kts | 140° |
| 2026-05-07 14:00 | 37.67632 | -4.73061 | 2622 ft | 119 kts | 139° |
| 2026-05-07 14:00 | 37.67036 | -4.72357 | 2624 ft | 117 kts | 139° |
| 2026-05-07 14:00 | 37.66446 | -4.71665 | 2631 ft | 116 kts | 140° |
| 2026-05-07 14:00 | 37.65856 | -4.70969 | 2629 ft | 116 kts | 139° |
| 2026-05-07 14:01 | 37.65266 | -4.70277 | 2633 ft | 118 kts | 139° |
| 2026-05-07 14:01 | 37.64606 | -4.69655 | 2636 ft | 119 kts | 153° |
| 2026-05-07 14:01 | 37.63893 | -4.69106 | 2632 ft | 121 kts | 150° |
| 2026-05-07 14:01 | 37.63173 | -4.68548 | 2667 ft | 118 kts | 150° |
| 2026-05-07 14:02 | 37.62502 | -4.68035 | 2790 ft | 109 kts | 152° |
| 2026-05-07 14:02 | 37.61875 | -4.67531 | 2963 ft | 107 kts | 151° |
| 2026-05-07 14:02 | 37.61232 | -4.67044 | 3144 ft | 109 kts | 153° |
| 2026-05-07 14:02 | 37.60558 | -4.66592 | 3310 ft | 109 kts | 156° |
| 2026-05-07 14:03 | 37.59902 | -4.66153 | 3475 ft | 103 kts | 156° |
| 2026-05-07 14:03 | 37.59270 | -4.65732 | 3652 ft | 102 kts | 157° |
| 2026-05-07 14:03 | 37.58645 | -4.65312 | 3824 ft | 101 kts | 155° |
| 2026-05-07 14:03 | 37.58027 | -4.64884 | 4004 ft | 100 kts | 156° |
| 2026-05-07 14:04 | 37.57421 | -4.64461 | 4181 ft | 98 kts | 156° |
| 2026-05-07 14:04 | 37.56823 | -4.64038 | 4357 ft | 96 kts | 156° |
| 2026-05-07 14:04 | 37.56237 | -4.63630 | 4535 ft | 97 kts | 155° |
| 2026-05-07 14:04 | 37.55653 | -4.63223 | 4703 ft | 95 kts | 156° |
| 2026-05-07 14:05 | 37.55095 | -4.62822 | 4868 ft | 93 kts | 155° |
| 2026-05-07 14:05 | 37.54509 | -4.62404 | 4969 ft | 102 kts | 155° |
| 2026-05-07 14:05 | 37.53862 | -4.61963 | 5076 ft | 108 kts | 155° |
| 2026-05-07 14:05 | 37.53190 | -4.61506 | 5182 ft | 110 kts | 156° |
| 2026-05-07 14:06 | 37.52511 | -4.61037 | 5282 ft | 111 kts | 156° |
| 2026-05-07 14:06 | 37.51837 | -4.60553 | 5387 ft | 111 kts | 156° |
| 2026-05-07 14:06 | 37.51161 | -4.60069 | 5487 ft | 113 kts | 156° |
| 2026-05-07 14:06 | 37.50477 | -4.59578 | 5585 ft | 113 kts | 154° |
| 2026-05-07 14:07 | 37.49790 | -4.59088 | 5693 ft | 114 kts | 155° |
| 2026-05-07 14:07 | 37.49105 | -4.58549 | 5801 ft | 118 kts | 152° |
| 2026-05-07 14:07 | 37.48404 | -4.57980 | 5897 ft | 121 kts | 153° |
| 2026-05-07 14:07 | 37.47674 | -4.57476 | 6006 ft | 119 kts | 159° |
| 2026-05-07 14:08 | 37.46939 | -4.57023 | 6126 ft | 119 kts | 159° |
| 2026-05-07 14:08 | 37.46199 | -4.56583 | 6277 ft | 117 kts | 159° |
| 2026-05-07 14:08 | 37.45479 | -4.56153 | 6421 ft | 112 kts | 159° |
| 2026-05-07 14:08 | 37.44786 | -4.55738 | 6564 ft | 109 kts | 160° |
| 2026-05-07 14:09 | 37.44111 | -4.55328 | 6704 ft | 106 kts | 159° |
| 2026-05-07 14:09 | 37.43451 | -4.54936 | 6845 ft | 104 kts | 160° |
| 2026-05-07 14:09 | 37.42807 | -4.54557 | 6988 ft | 101 kts | 161° |
| 2026-05-07 14:09 | 37.42173 | -4.54182 | 7132 ft | 101 kts | 160° |
| 2026-05-07 14:10 | 37.41556 | -4.53806 | 7278 ft | 97 kts | 158° |
| 2026-05-07 14:10 | 37.40997 | -4.53305 | 7348 ft | 105 kts | 149° |
| 2026-05-07 14:10 | 37.40384 | -4.52744 | 7354 ft | 113 kts | 149° |
| 2026-05-07 14:10 | 37.39742 | -4.52154 | 7351 ft | 119 kts | 148° |
| 2026-05-07 14:11 | 37.39059 | -4.51543 | 7348 ft | 122 kts | 149° |
| 2026-05-07 14:11 | 37.38363 | -4.50921 | 7346 ft | 124 kts | 149° |
| 2026-05-07 14:11 | 37.37658 | -4.50292 | 7351 ft | 123 kts | 148° |
| 2026-05-07 14:11 | 37.36954 | -4.49665 | 7342 ft | 124 kts | 149° |
| 2026-05-07 14:12 | 37.36253 | -4.49033 | 7349 ft | 124 kts | 150° |
| 2026-05-07 14:12 | 37.35551 | -4.48397 | 7348 ft | 125 kts | 149° |
| 2026-05-07 14:12 | 37.34855 | -4.47765 | 7348 ft | 125 kts | 148° |
| 2026-05-07 14:12 | 37.34146 | -4.47119 | 7353 ft | 126 kts | 149° |
| 2026-05-07 14:13 | 37.33437 | -4.46474 | 7354 ft | 126 kts | 149° |
| 2026-05-07 14:13 | 37.32730 | -4.45830 | 7354 ft | 126 kts | 149° |
| 2026-05-07 14:13 | 37.32016 | -4.45185 | 7350 ft | 126 kts | 149° |
| 2026-05-07 14:13 | 37.31304 | -4.44546 | 7350 ft | 125 kts | 149° |
| 2026-05-07 14:14 | 37.30598 | -4.43911 | 7351 ft | 125 kts | 148° |
| 2026-05-07 14:14 | 37.29893 | -4.43271 | 7351 ft | 125 kts | 149° |
| 2026-05-07 14:14 | 37.29191 | -4.42634 | 7353 ft | 124 kts | 148° |
| 2026-05-07 14:14 | 37.28494 | -4.42006 | 7353 ft | 125 kts | 150° |
| 2026-05-07 14:15 | 37.27740 | -4.41474 | 7350 ft | 125 kts | 156° |
| 2026-05-07 14:15 | 37.26976 | -4.40966 | 7360 ft | 124 kts | 158° |
| 2026-05-07 14:15 | 37.26214 | -4.40459 | 7359 ft | 124 kts | 156° |
| 2026-05-07 14:15 | 37.25450 | -4.39953 | 7360 ft | 124 kts | 156° |
| 2026-05-07 14:16 | 37.24676 | -4.39439 | 7357 ft | 127 kts | 157° |
| 2026-05-07 14:16 | 37.23892 | -4.38914 | 7355 ft | 128 kts | 157° |
| 2026-05-07 14:16 | 37.23112 | -4.38391 | 7355 ft | 126 kts | 156° |
| 2026-05-07 14:16 | 37.22323 | -4.37912 | 7360 ft | 126 kts | 160° |
| 2026-05-07 14:17 | 37.21517 | -4.37468 | 7359 ft | 127 kts | 160° |
| 2026-05-07 14:17 | 37.20710 | -4.37020 | 7360 ft | 126 kts | 161° |
| 2026-05-07 14:17 | 37.19915 | -4.36568 | 7365 ft | 125 kts | 161° |
| 2026-05-07 14:17 | 37.19117 | -4.36122 | 7363 ft | 126 kts | 161° |
| 2026-05-07 14:18 | 37.18307 | -4.35675 | 7360 ft | 129 kts | 162° |
| 2026-05-07 14:18 | 37.17485 | -4.35252 | 7357 ft | 129 kts | 163° |
| 2026-05-07 14:18 | 37.16661 | -4.34831 | 7356 ft | 127 kts | 163° |
| 2026-05-07 14:18 | 37.15863 | -4.34417 | 7352 ft | 122 kts | 162° |
| 2026-05-07 14:19 | 37.15086 | -4.34048 | 7366 ft | 124 kts | 165° |
| 2026-05-07 14:19 | 37.14266 | -4.33679 | 7366 ft | 125 kts | 166° |
| 2026-05-07 14:19 | 37.13439 | -4.33309 | 7364 ft | 127 kts | 164° |
| 2026-05-07 14:19 | 37.12612 | -4.32948 | 7364 ft | 125 kts | 165° |
| 2026-05-07 14:20 | 37.11796 | -4.32586 | 7369 ft | 126 kts | 166° |
| 2026-05-07 14:20 | 37.10957 | -4.32210 | 7365 ft | 129 kts | 165° |
| 2026-05-07 14:20 | 37.10113 | -4.31831 | 7363 ft | 128 kts | 165° |
| 2026-05-07 14:20 | 37.09272 | -4.31453 | 7362 ft | 128 kts | 166° |
| 2026-05-07 14:21 | 37.08435 | -4.31082 | 7367 ft | 128 kts | 163° |
| 2026-05-07 14:21 | 37.07593 | -4.30713 | 7362 ft | 127 kts | 165° |
| 2026-05-07 14:21 | 37.06762 | -4.30327 | 7366 ft | 128 kts | 164° |
| 2026-05-07 14:21 | 37.05931 | -4.29915 | 7366 ft | 129 kts | 163° |
| 2026-05-07 14:22 | 37.05102 | -4.29488 | 7369 ft | 128 kts | 162° |
| 2026-05-07 14:22 | 37.04283 | -4.29064 | 7359 ft | 126 kts | 161° |
| 2026-05-07 14:22 | 37.03484 | -4.28649 | 7368 ft | 124 kts | 162° |
| 2026-05-07 14:22 | 37.02685 | -4.28235 | 7364 ft | 124 kts | 162° |
| 2026-05-07 14:23 | 37.01875 | -4.27815 | 7370 ft | 129 kts | 161° |
| 2026-05-07 14:23 | 37.01026 | -4.27381 | 7359 ft | 135 kts | 161° |
| 2026-05-07 14:23 | 37.00183 | -4.26949 | 7366 ft | 132 kts | 162° |
| 2026-05-07 14:23 | 36.99332 | -4.26511 | 7294 ft | 136 kts | 162° |
| 2026-05-07 14:24 | 36.98441 | -4.26056 | 7045 ft | 139 kts | 161° |
| 2026-05-07 14:24 | 36.97556 | -4.25577 | 6824 ft | 140 kts | 156° |
| 2026-05-07 14:24 | 36.96701 | -4.24987 | 6626 ft | 141 kts | 154° |
| 2026-05-07 14:24 | 36.95830 | -4.24397 | 6403 ft | 143 kts | 155° |
| 2026-05-07 14:25 | 36.94963 | -4.23793 | 6190 ft | 142 kts | 154° |
| 2026-05-07 14:25 | 36.94100 | -4.23168 | 5958 ft | 145 kts | 154° |
| 2026-05-07 14:25 | 36.93223 | -4.22532 | 5723 ft | 144 kts | 152° |
| 2026-05-07 14:25 | 36.92368 | -4.21918 | 5496 ft | 140 kts | 154° |
| 2026-05-07 14:26 | 36.91518 | -4.21312 | 5275 ft | 140 kts | 153° |
| 2026-05-07 14:26 | 36.90691 | -4.20718 | 5051 ft | 138 kts | 153° |
| 2026-05-07 14:26 | 36.89860 | -4.20120 | 4826 ft | 137 kts | 153° |
| 2026-05-07 14:26 | 36.89042 | -4.19528 | 4601 ft | 135 kts | 153° |
| 2026-05-07 14:27 | 36.88227 | -4.18944 | 4361 ft | 137 kts | 154° |
| 2026-05-07 14:27 | 36.87405 | -4.18355 | 4055 ft | 133 kts | 153° |
| 2026-05-07 14:27 | 36.86612 | -4.17785 | 3760 ft | 129 kts | 153° |
| 2026-05-07 14:27 | 36.85837 | -4.17216 | 3457 ft | 130 kts | 153° |
| 2026-05-07 14:28 | 36.85074 | -4.16671 | 3150 ft | 125 kts | 153° |
| 2026-05-07 14:28 | 36.84349 | -4.16089 | 2860 ft | 121 kts | 141° |
| 2026-05-07 14:28 | 36.83752 | -4.15379 | 2554 ft | 116 kts | 151° |
| 2026-05-07 14:28 | 36.83004 | -4.15102 | 2187 ft | 114 kts | 178° |
| 2026-05-07 14:29 | 36.82223 | -4.15020 | 1692 ft | 113 kts | 177° |
| 2026-05-07 14:29 | 36.81592 | -4.14997 | 1642 ft | 80 kts | 173° |
| 2026-05-07 14:29 | 36.81021 | -4.14968 | 1269 ft | 78 kts | 188° |
| 2026-05-07 14:29 | 36.80590 | -4.15362 | 1123 ft | 80 kts | 230° |
| 2026-05-07 14:30 | 36.80509 | -4.16049 | 1063 ft | 90 kts | 292° |
| 2026-05-07 14:30 | 36.81046 | -4.16288 | 939 ft | 96 kts | 37° |
| 2026-05-07 14:30 | 36.81105 | -4.15602 | 792 ft | 75 kts | 120° |
| 2026-05-07 14:30 | 36.80892 | -4.15059 | 624 ft | 73 kts | 127° |
| 2026-05-07 14:31 | 36.80598 | -4.14498 | 368 ft | 78 kts | 122° |
| 2026-05-07 14:31 | 36.80326 | -4.13949 | 161 ft | 65 kts | 121° |
| 2026-05-07 14:31 | 36.80155 | -4.13612 | 156 ft | 23 kts | 127° |
| 2026-05-07 14:31 | 36.80138 | -4.13579 | 154 ft | 0 kts | 123° |
| 2026-05-07 14:32 | 36.80146 | -4.13579 | 153 ft | 5 kts | 298° |
| 2026-05-07 14:32 | 36.80178 | -4.13641 | 158 ft | 10 kts | 329° |
| 2026-05-07 14:33 | 36.80188 | -4.13649 | 157 ft | 0 kts | 344° |
| 2026-05-07 14:33 | 36.80189 | -4.13648 | 158 ft | 0 kts | 31° |
| 2026-05-07 14:33 | 36.80201 | -4.13629 | 156 ft | 2 kts | 51° |
| 2026-05-07 14:33 | 36.80205 | -4.13627 | 157 ft | 0 kts | 300° |